createdAt,value
2024-03-16T00:00:09.189Z,12.30
2024-03-16T00:02:37.354Z,12.30
2024-03-16T00:05:05.762Z,12.20
2024-03-16T00:07:33.935Z,12.20
2024-03-16T00:10:02.217Z,12.20
2024-03-16T00:12:30.816Z,12.20
2024-03-16T00:14:58.962Z,12.20
2024-03-16T00:17:27.318Z,12.20
2024-03-16T00:19:56.387Z,12.20
2024-03-16T00:22:24.558Z,12.10
2024-03-16T00:24:52.755Z,12.10
2024-03-16T00:27:20.880Z,12.20
2024-03-16T00:29:49.004Z,12.20
2024-03-16T00:32:17.527Z,12.20
2024-03-16T00:34:45.886Z,12.20
2024-03-16T00:37:14.377Z,12.20
2024-03-16T00:39:42.583Z,12.20
2024-03-16T00:42:11.251Z,12.20
2024-03-16T00:44:39.426Z,12.10
2024-03-16T00:47:07.675Z,12.10
2024-03-16T00:49:36.077Z,12.10
2024-03-16T00:52:04.283Z,12.10
2024-03-16T00:54:32.773Z,12.10
2024-03-16T00:57:01.001Z,12.10
2024-03-16T00:59:30.071Z,12.10
2024-03-16T01:01:58.645Z,12.10
2024-03-16T01:04:26.897Z,12.10
2024-03-16T01:06:55.119Z,12.10
2024-03-16T01:09:23.486Z,12.20
2024-03-16T01:11:51.661Z,12.10
2024-03-16T01:14:20.040Z,12.10
2024-03-16T01:16:48.224Z,12.10
2024-03-16T01:19:16.553Z,12.00
2024-03-16T01:21:44.816Z,12.10
2024-03-16T01:24:13.063Z,12.00
2024-03-16T01:26:41.200Z,12.00
2024-03-16T01:29:16.978Z,12.00
2024-03-16T01:31:45.333Z,11.90
2024-03-16T01:34:13.480Z,11.90
2024-03-16T01:36:41.636Z,11.90
2024-03-16T01:39:13.316Z,11.80
2024-03-16T01:41:41.582Z,11.80
2024-03-16T01:44:11.898Z,11.70
2024-03-16T01:46:40.715Z,11.60
2024-03-16T01:49:10.023Z,11.60
2024-03-16T01:51:38.537Z,11.60
2024-03-16T01:54:06.877Z,11.50
2024-03-16T01:56:35.276Z,11.50
2024-03-16T01:59:03.595Z,11.60
2024-03-16T02:01:32.396Z,11.40
2024-03-16T02:04:00.830Z,11.30
2024-03-16T02:06:30.829Z,11.20
2024-03-16T02:09:01.418Z,11.10
2024-03-16T02:11:29.748Z,11.10
2024-03-16T02:13:57.917Z,11.10
2024-03-16T02:16:25.053Z,11.10
2024-03-16T02:18:53.329Z,11.00
2024-03-16T02:21:21.478Z,10.90
2024-03-16T02:23:49.711Z,10.90
2024-03-16T02:26:18.122Z,10.90
2024-03-16T02:28:46.297Z,10.80
2024-03-16T02:31:15.157Z,10.80
2024-03-16T02:33:43.395Z,10.80
2024-03-16T02:36:11.762Z,10.80
2024-03-16T02:38:41.575Z,10.80
2024-03-16T02:41:09.773Z,10.80
2024-03-16T02:43:37.940Z,10.80
2024-03-16T02:46:06.646Z,10.80
2024-03-16T02:48:34.933Z,10.80
2024-03-16T02:51:03.096Z,10.80
2024-03-16T02:53:31.235Z,10.80
2024-03-16T02:56:00.454Z,10.80
2024-03-16T02:58:28.640Z,10.80
2024-03-16T03:00:56.911Z,10.80
2024-03-16T03:03:25.753Z,10.70
2024-03-16T03:05:54.271Z,10.80
2024-03-16T03:08:22.440Z,10.80
2024-03-16T03:10:50.641Z,10.70
2024-03-16T03:13:18.845Z,10.70
2024-03-16T03:15:50.693Z,10.70
2024-03-16T03:18:18.942Z,10.70
2024-03-16T03:20:47.282Z,10.60
2024-03-16T03:23:15.422Z,10.70
2024-03-16T03:25:43.590Z,10.70
2024-03-16T03:28:11.849Z,10.70
2024-03-16T03:30:40.054Z,10.60
2024-03-16T03:33:08.270Z,10.70
2024-03-16T03:35:36.521Z,10.70
2024-03-16T03:38:04.751Z,10.70
2024-03-16T03:40:32.882Z,10.60
2024-03-16T03:43:01.842Z,10.60
2024-03-16T03:45:39.271Z,10.60
2024-03-16T03:48:26.551Z,10.60
2024-03-16T03:50:54.993Z,10.60
2024-03-16T03:53:23.160Z,10.60
2024-03-16T03:55:51.321Z,10.60
2024-03-16T03:58:19.477Z,10.50
2024-03-16T04:00:47.741Z,10.50
2024-03-16T04:03:16.020Z,10.60
2024-03-16T04:05:44.359Z,10.60
2024-03-16T04:08:12.562Z,10.60
2024-03-16T04:10:40.710Z,10.60
2024-03-16T04:13:09.086Z,10.60
2024-03-16T04:15:38.464Z,10.50
2024-03-16T04:18:06.787Z,10.50
2024-03-16T04:20:34.944Z,10.60
2024-03-16T04:23:03.189Z,10.50
2024-03-16T04:25:31.343Z,10.50
2024-03-16T04:27:59.784Z,10.50
2024-03-16T04:30:28.038Z,10.50
2024-03-16T04:32:56.355Z,10.50
2024-03-16T04:35:24.562Z,10.50
2024-03-16T04:37:53.752Z,10.50
2024-03-16T04:40:22.006Z,10.50
2024-03-16T04:42:50.206Z,10.40
2024-03-16T04:45:18.656Z,10.50
2024-03-16T04:47:46.856Z,10.40
2024-03-16T04:50:16.508Z,10.40
2024-03-16T04:52:44.833Z,10.40
2024-03-16T04:55:13.226Z,10.40
2024-03-16T04:57:41.683Z,10.40
2024-03-16T05:00:13.100Z,10.30
2024-03-16T05:02:41.320Z,10.30
2024-03-16T05:05:09.849Z,10.30
2024-03-16T05:07:38.424Z,10.30
2024-03-16T05:10:06.963Z,10.30
2024-03-16T05:12:35.211Z,10.30
2024-03-16T05:15:03.467Z,10.30
2024-03-16T05:17:32.804Z,10.20
2024-03-16T05:20:01.130Z,10.20
2024-03-16T05:22:31.117Z,10.10
2024-03-16T05:24:59.355Z,10.10
2024-03-16T05:27:28.732Z,10.10
2024-03-16T05:29:57.233Z,10.10
2024-03-16T05:32:25.503Z,10.00
2024-03-16T05:34:53.850Z,10.00
2024-03-16T05:37:22.048Z,10.00
2024-03-16T05:39:50.490Z,10.00
2024-03-16T05:42:18.916Z,10.00
2024-03-16T05:44:47.020Z,10.00
2024-03-16T05:47:15.206Z,10.00
2024-03-16T05:49:43.400Z,10.00
2024-03-16T05:52:11.629Z,10.00
2024-03-16T05:54:39.959Z,9.90
2024-03-16T05:57:08.093Z,9.90
2024-03-16T05:59:36.238Z,9.90
2024-03-16T06:02:04.437Z,9.90
2024-03-16T06:04:32.659Z,9.90
2024-03-16T06:07:00.868Z,9.90
2024-03-16T06:09:29.049Z,9.90
2024-03-16T06:11:57.200Z,9.90
2024-03-16T06:14:25.406Z,9.90
2024-03-16T06:16:53.552Z,9.90
2024-03-16T06:19:22.035Z,9.90
2024-03-16T06:21:50.214Z,9.80
2024-03-16T06:24:18.396Z,9.70
2024-03-16T06:26:55.705Z,9.60
2024-03-16T06:29:27.230Z,9.70
2024-03-16T06:32:06.310Z,9.60
2024-03-16T06:34:34.733Z,9.60
2024-03-16T06:37:04.216Z,9.60
2024-03-16T06:39:32.566Z,9.70
2024-03-16T06:42:00.806Z,9.60
2024-03-16T06:44:29.015Z,9.70
2024-03-16T06:46:57.205Z,9.70
2024-03-16T06:49:25.673Z,9.70
2024-03-16T06:51:53.833Z,9.80
2024-03-16T06:54:22.076Z,9.80
2024-03-16T06:56:50.201Z,9.80
2024-03-16T06:59:18.336Z,9.80
2024-03-16T07:01:46.702Z,9.80
2024-03-16T07:04:16.914Z,9.90
2024-03-16T07:06:45.563Z,9.90
2024-03-16T07:09:14.669Z,9.90
2024-03-16T07:11:47.767Z,9.90
2024-03-16T07:14:17.012Z,10.00
2024-03-16T07:16:45.132Z,10.00
2024-03-16T07:19:12.379Z,10.00
2024-03-16T07:21:40.764Z,10.00
2024-03-16T07:24:11.056Z,10.00
2024-03-16T07:26:39.423Z,10.10
2024-03-16T07:29:07.692Z,10.10
2024-03-16T07:31:35.979Z,10.10
2024-03-16T07:34:04.875Z,10.10
2024-03-16T07:36:33.319Z,10.20
2024-03-16T07:39:01.598Z,10.20
2024-03-16T07:41:29.856Z,10.30
2024-03-16T07:43:58.013Z,10.30
2024-03-16T07:46:26.206Z,10.40
2024-03-16T07:48:54.435Z,10.40
2024-03-16T07:51:26.130Z,10.60
2024-03-16T07:53:54.399Z,10.70
2024-03-16T07:56:22.530Z,10.70
2024-03-16T07:58:51.024Z,10.80
2024-03-16T08:01:21.304Z,10.80
2024-03-16T08:03:50.075Z,10.90
2024-03-16T08:06:18.399Z,10.90
2024-03-16T08:08:46.729Z,11.00
2024-03-16T08:11:14.983Z,11.10
2024-03-16T08:13:43.161Z,11.20
2024-03-16T08:16:11.485Z,11.20
2024-03-16T08:18:40.014Z,11.30
2024-03-16T08:21:09.216Z,11.30
2024-03-16T08:23:37.448Z,11.40
2024-03-16T08:26:07.225Z,11.50
2024-03-16T08:28:35.577Z,11.50
2024-03-16T08:31:04.833Z,11.50
2024-03-16T08:33:33.642Z,11.60
2024-03-16T08:36:01.886Z,11.70
2024-03-16T08:38:31.748Z,11.70
2024-03-16T08:41:00.258Z,11.70
2024-03-16T08:45:56.998Z,11.70
2024-03-16T08:48:25.473Z,11.80
2024-03-16T08:50:53.722Z,11.90
2024-03-16T08:53:21.903Z,12.00
2024-03-16T08:55:50.063Z,12.10
2024-03-16T08:58:18.339Z,12.20
2024-03-16T09:00:47.369Z,12.30
2024-03-16T09:03:15.624Z,12.30
2024-03-16T09:05:43.765Z,12.40
2024-03-16T09:08:11.963Z,12.60
2024-03-16T09:10:40.105Z,12.70
2024-03-16T09:13:08.929Z,12.60
2024-03-16T09:15:37.154Z,12.60
2024-03-16T09:18:05.816Z,12.60
2024-03-16T09:20:34.986Z,12.70
2024-03-16T09:23:03.172Z,12.60
2024-03-16T09:25:31.634Z,12.60
2024-03-16T09:27:59.931Z,12.50
2024-03-16T09:30:28.394Z,12.30
2024-03-16T09:32:56.623Z,12.20
2024-03-16T09:35:24.806Z,12.30
2024-03-16T09:37:53.127Z,12.30
2024-03-16T09:40:21.371Z,12.30
